sensor_id;sensor_type;location;lat;lon;timestamp;pressure;altitude;pressure_sealevel;temperature;humidity
58295;BME280;45705;55.592;37.460;2023-01-31T00:01:06;97186.06;;;-1.83;100.00
58295;BME280;45705;55.592;37.460;2023-01-31T00:03:32;97186.72;;;-2.07;100.00
58295;BME280;45705;55.592;37.460;2023-01-31T00:05:58;97172.28;;;-1.95;100.00
58295;BME280;45705;55.592;37.460;2023-01-31T00:08:33;97177.00;;;-1.82;100.00
58295;BME280;45705;55.592;37.460;2023-01-31T00:10:58;97178.81;;;-2.22;100.00
58295;BME280;45705;55.592;37.460;2023-01-31T00:13:24;97182.50;;;-2.13;100.00
58295;BME280;45705;55.592;37.460;2023-01-31T00:15:55;97182.38;;;-1.92;100.00
58295;BME280;45705;55.592;37.460;2023-01-31T00:18:21;97184.00;;;-1.96;100.00
58295;BME280;45705;55.592;37.460;2023-01-31T00:20:46;97174.03;;;-2.25;100.00
58295;BME280;45705;55.592;37.460;2023-01-31T00:23:12;97175.31;;;-2.18;100.00
58295;BME280;45705;55.592;37.460;2023-01-31T00:25:38;97180.38;;;-2.16;100.00
58295;BME280;45705;55.592;37.460;2023-01-31T00:28:04;97189.84;;;-1.94;100.00
58295;BME280;45705;55.592;37.460;2023-01-31T00:30:29;97182.69;;;-1.99;100.00
58295;BME280;45705;55.592;37.460;2023-01-31T00:32:55;97176.38;;;-2.13;100.00
58295;BME280;45705;55.592;37.460;2023-01-31T00:35:23;97181.88;;;-1.94;100.00
58295;BME280;45705;55.592;37.460;2023-01-31T00:37:49;97192.25;;;-1.93;100.00
58295;BME280;45705;55.592;37.460;2023-01-31T00:40:15;97179.09;;;-1.79;100.00
58295;BME280;45705;55.592;37.460;2023-01-31T00:42:44;97185.97;;;-1.68;100.00
58295;BME280;45705;55.592;37.460;2023-01-31T00:45:10;97191.31;;;-1.73;100.00
58295;BME280;45705;55.592;37.460;2023-01-31T00:47:36;97192.31;;;-1.59;100.00
58295;BME280;45705;55.592;37.460;2023-01-31T00:50:03;97198.78;;;-1.70;100.00
58295;BME280;45705;55.592;37.460;2023-01-31T00:52:30;97205.31;;;-1.52;100.00
58295;BME280;45705;55.592;37.460;2023-01-31T00:54:56;97202.50;;;-1.71;100.00
58295;BME280;45705;55.592;37.460;2023-01-31T00:57:22;97208.28;;;-1.59;100.00
58295;BME280;45705;55.592;37.460;2023-01-31T00:59:49;97209.94;;;-1.68;100.00
58295;BME280;45705;55.592;37.460;2023-01-31T01:02:14;97212.34;;;-1.32;100.00
58295;BME280;45705;55.592;37.460;2023-01-31T01:04:40;97202.97;;;-1.59;100.00
58295;BME280;45705;55.592;37.460;2023-01-31T01:07:06;97194.56;;;-1.81;100.00
58295;BME280;45705;55.592;37.460;2023-01-31T01:09:32;97199.38;;;-1.78;100.00
58295;BME280;45705;55.592;37.460;2023-01-31T01:11:58;97205.56;;;-1.93;100.00
58295;BME280;45705;55.592;37.460;2023-01-31T01:14:23;97212.63;;;-1.73;100.00
58295;BME280;45705;55.592;37.460;2023-01-31T01:16:49;97219.19;;;-2.00;100.00
58295;BME280;45705;55.592;37.460;2023-01-31T01:19:17;97205.22;;;-1.81;100.00
58295;BME280;45705;55.592;37.460;2023-01-31T01:21:46;97208.81;;;-1.56;100.00
58295;BME280;45705;55.592;37.460;2023-01-31T01:24:15;97209.06;;;-1.58;100.00
58295;BME280;45705;55.592;37.460;2023-01-31T01:26:41;97208.44;;;-1.40;100.00
58295;BME280;45705;55.592;37.460;2023-01-31T01:29:07;97196.59;;;-1.63;100.00
58295;BME280;45705;55.592;37.460;2023-01-31T01:31:33;97211.47;;;-1.56;100.00
58295;BME280;45705;55.592;37.460;2023-01-31T01:34:02;97210.84;;;-1.43;100.00
58295;BME280;45705;55.592;37.460;2023-01-31T01:36:28;97211.53;;;-1.67;100.00
58295;BME280;45705;55.592;37.460;2023-01-31T01:38:56;97216.81;;;-1.56;100.00
58295;BME280;45705;55.592;37.460;2023-01-31T01:41:23;97209.44;;;-1.75;100.00
58295;BME280;45705;55.592;37.460;2023-01-31T01:43:50;97224.00;;;-1.57;100.00
58295;BME280;45705;55.592;37.460;2023-01-31T01:46:22;97223.81;;;-1.71;100.00
58295;BME280;45705;55.592;37.460;2023-01-31T01:48:50;97218.88;;;-1.48;100.00
58295;BME280;45705;55.592;37.460;2023-01-31T01:51:17;97223.31;;;-1.39;100.00
58295;BME280;45705;55.592;37.460;2023-01-31T01:53:47;97225.84;;;-1.58;100.00
58295;BME280;45705;55.592;37.460;2023-01-31T01:56:19;97218.94;;;-1.59;100.00
58295;BME280;45705;55.592;37.460;2023-01-31T01:58:50;97211.63;;;-1.43;100.00
58295;BME280;45705;55.592;37.460;2023-01-31T02:01:20;97217.25;;;-1.44;100.00
58295;BME280;45705;55.592;37.460;2023-01-31T02:03:47;97209.72;;;-1.37;100.00
58295;BME280;45705;55.592;37.460;2023-01-31T02:06:14;97210.22;;;-1.30;100.00
58295;BME280;45705;55.592;37.460;2023-01-31T02:08:41;97206.50;;;-1.34;100.00
58295;BME280;45705;55.592;37.460;2023-01-31T02:11:23;97208.75;;;-1.51;100.00
58295;BME280;45705;55.592;37.460;2023-01-31T02:14:04;97205.97;;;-1.70;100.00
58295;BME280;45705;55.592;37.460;2023-01-31T02:16:33;97208.69;;;-1.81;100.00
58295;BME280;45705;55.592;37.460;2023-01-31T02:19:00;97191.06;;;-1.76;100.00
58295;BME280;45705;55.592;37.460;2023-01-31T02:38:20;97190.78;;;-1.70;100.00
58295;BME280;45705;55.592;37.460;2023-01-31T02:49:51;97191.69;;;-1.45;100.00
58295;BME280;45705;55.592;37.460;2023-01-31T02:53:02;97194.09;;;-1.49;100.00
58295;BME280;45705;55.592;37.460;2023-01-31T02:58:36;97196.03;;;-1.25;100.00
58295;BME280;45705;55.592;37.460;2023-01-31T03:01:04;97192.53;;;-1.21;100.00
58295;BME280;45705;55.592;37.460;2023-01-31T03:03:35;97194.38;;;-1.50;100.00
58295;BME280;45705;55.592;37.460;2023-01-31T03:09:05;97207.31;;;-1.73;100.00
58295;BME280;45705;55.592;37.460;2023-01-31T03:11:51;97205.19;;;-1.36;100.00
58295;BME280;45705;55.592;37.460;2023-01-31T03:16:56;97207.00;;;-1.32;100.00
58295;BME280;45705;55.592;37.460;2023-01-31T03:20:30;97205.09;;;-1.26;100.00
58295;BME280;45705;55.592;37.460;2023-01-31T03:22:45;97203.44;;;-1.17;100.00
58295;BME280;45705;55.592;37.460;2023-01-31T03:25:14;97206.94;;;-1.22;100.00
58295;BME280;45705;55.592;37.460;2023-01-31T03:27:46;97208.09;;;-1.33;100.00
58295;BME280;45705;55.592;37.460;2023-01-31T03:30:22;97217.91;;;-1.63;100.00
58295;BME280;45705;55.592;37.460;2023-01-31T03:32:54;97220.94;;;-1.40;100.00
58295;BME280;45705;55.592;37.460;2023-01-31T03:35:26;97220.84;;;-1.64;100.00
58295;BME280;45705;55.592;37.460;2023-01-31T03:38:02;97221.97;;;-1.36;100.00
58295;BME280;45705;55.592;37.460;2023-01-31T03:40:37;97226.50;;;-1.36;100.00
58295;BME280;45705;55.592;37.460;2023-01-31T03:46:00;97227.78;;;-1.29;100.00
58295;BME280;45705;55.592;37.460;2023-01-31T03:48:40;97240.06;;;-1.28;100.00
58295;BME280;45705;55.592;37.460;2023-01-31T03:51:13;97226.34;;;-1.50;100.00
58295;BME280;45705;55.592;37.460;2023-01-31T03:53:49;97230.69;;;-1.25;100.00
58295;BME280;45705;55.592;37.460;2023-01-31T03:56:31;97242.31;;;-1.45;100.00
58295;BME280;45705;55.592;37.460;2023-01-31T03:59:12;97234.84;;;-1.43;100.00
58295;BME280;45705;55.592;37.460;2023-01-31T04:01:44;97237.38;;;-1.28;100.00
58295;BME280;45705;55.592;37.460;2023-01-31T04:04:29;97222.16;;;-1.22;100.00
58295;BME280;45705;55.592;37.460;2023-01-31T04:06:58;97236.03;;;-1.25;100.00
58295;BME280;45705;55.592;37.460;2023-01-31T04:09:25;97232.50;;;-1.15;100.00
58295;BME280;45705;55.592;37.460;2023-01-31T04:11:51;97219.69;;;-1.19;100.00
58295;BME280;45705;55.592;37.460;2023-01-31T04:14:17;97238.56;;;-1.44;100.00
58295;BME280;45705;55.592;37.460;2023-01-31T04:16:43;97244.13;;;-1.41;100.00
58295;BME280;45705;55.592;37.460;2023-01-31T04:19:10;97244.03;;;-1.25;100.00
58295;BME280;45705;55.592;37.460;2023-01-31T04:21:36;97255.72;;;-1.21;100.00
58295;BME280;45705;55.592;37.460;2023-01-31T04:24:02;97231.38;;;-1.09;100.00
58295;BME280;45705;55.592;37.460;2023-01-31T04:26:28;97248.81;;;-1.22;100.00
58295;BME280;45705;55.592;37.460;2023-01-31T04:28:53;97247.38;;;-1.09;100.00
58295;BME280;45705;55.592;37.460;2023-01-31T04:31:19;97247.41;;;-1.14;100.00
58295;BME280;45705;55.592;37.460;2023-01-31T04:33:45;97248.66;;;-1.07;100.00
58295;BME280;45705;55.592;37.460;2023-01-31T04:36:11;97248.34;;;-1.34;100.00
58295;BME280;45705;55.592;37.460;2023-01-31T04:38:36;97243.75;;;-1.24;100.00
58295;BME280;45705;55.592;37.460;2023-01-31T04:41:02;97260.41;;;-1.42;100.00
58295;BME280;45705;55.592;37.460;2023-01-31T04:43:28;97263.16;;;-1.58;100.00
58295;BME280;45705;55.592;37.460;2023-01-31T04:45:53;97269.38;;;-1.28;100.00
58295;BME280;45705;55.592;37.460;2023-01-31T04:48:19;97276.88;;;-1.35;100.00
58295;BME280;45705;55.592;37.460;2023-01-31T04:50:45;97249.19;;;-1.39;100.00
58295;BME280;45705;55.592;37.460;2023-01-31T04:53:10;97264.09;;;-1.38;100.00
58295;BME280;45705;55.592;37.460;2023-01-31T04:55:36;97269.44;;;-1.38;100.00
58295;BME280;45705;55.592;37.460;2023-01-31T04:58:02;97264.06;;;-1.33;100.00
58295;BME280;45705;55.592;37.460;2023-01-31T05:00:28;97269.53;;;-1.53;100.00
58295;BME280;45705;55.592;37.460;2023-01-31T05:02:54;97278.00;;;-1.41;100.00
58295;BME280;45705;55.592;37.460;2023-01-31T05:05:20;97271.75;;;-1.26;100.00
58295;BME280;45705;55.592;37.460;2023-01-31T05:07:46;97283.66;;;-1.13;100.00
58295;BME280;45705;55.592;37.460;2023-01-31T05:10:12;97275.34;;;-1.46;100.00
58295;BME280;45705;55.592;37.460;2023-01-31T05:12:39;97277.53;;;-1.53;100.00
58295;BME280;45705;55.592;37.460;2023-01-31T05:15:05;97281.22;;;-1.49;100.00
58295;BME280;45705;55.592;37.460;2023-01-31T05:17:36;97278.44;;;-1.29;100.00
58295;BME280;45705;55.592;37.460;2023-01-31T05:20:03;97282.41;;;-1.66;100.00
58295;BME280;45705;55.592;37.460;2023-01-31T05:22:29;97277.50;;;-1.48;100.00
58295;BME280;45705;55.592;37.460;2023-01-31T05:24:55;97287.22;;;-1.73;100.00
58295;BME280;45705;55.592;37.460;2023-01-31T05:27:21;97282.50;;;-1.42;100.00
58295;BME280;45705;55.592;37.460;2023-01-31T05:29:47;97289.69;;;-1.37;100.00
58295;BME280;45705;55.592;37.460;2023-01-31T05:32:13;97283.13;;;-1.10;100.00
58295;BME280;45705;55.592;37.460;2023-01-31T05:34:39;97292.03;;;-0.91;100.00
58295;BME280;45705;55.592;37.460;2023-01-31T05:37:05;97263.66;;;-1.50;100.00
58295;BME280;45705;55.592;37.460;2023-01-31T05:39:31;97293.53;;;-1.14;100.00
58295;BME280;45705;55.592;37.460;2023-01-31T05:41:57;97297.19;;;-1.39;100.00
58295;BME280;45705;55.592;37.460;2023-01-31T05:44:22;97304.59;;;-1.31;100.00
58295;BME280;45705;55.592;37.460;2023-01-31T05:46:49;97287.31;;;-1.39;100.00
58295;BME280;45705;55.592;37.460;2023-01-31T05:49:15;97302.41;;;-1.24;100.00
58295;BME280;45705;55.592;37.460;2023-01-31T05:51:40;97294.31;;;-1.08;100.00
58295;BME280;45705;55.592;37.460;2023-01-31T05:54:07;97296.91;;;-1.03;100.00
58295;BME280;45705;55.592;37.460;2023-01-31T05:56:33;97291.31;;;-1.02;100.00
58295;BME280;45705;55.592;37.460;2023-01-31T05:58:59;97281.41;;;-0.96;100.00
58295;BME280;45705;55.592;37.460;2023-01-31T06:01:27;97286.78;;;-1.41;100.00
58295;BME280;45705;55.592;37.460;2023-01-31T06:03:53;97304.84;;;-1.27;100.00
58295;BME280;45705;55.592;37.460;2023-01-31T06:06:19;97299.69;;;-1.19;100.00
58295;BME280;45705;55.592;37.460;2023-01-31T06:08:46;97306.53;;;-1.02;100.00
58295;BME280;45705;55.592;37.460;2023-01-31T06:11:12;97309.59;;;-1.24;100.00
58295;BME280;45705;55.592;37.460;2023-01-31T06:13:40;97305.53;;;-1.11;100.00
58295;BME280;45705;55.592;37.460;2023-01-31T06:16:08;97311.28;;;-0.99;100.00
58295;BME280;45705;55.592;37.460;2023-01-31T06:18:34;97307.47;;;-0.88;100.00
58295;BME280;45705;55.592;37.460;2023-01-31T06:21:00;97312.56;;;-0.91;100.00
58295;BME280;45705;55.592;37.460;2023-01-31T06:23:26;97313.28;;;-0.81;100.00
58295;BME280;45705;55.592;37.460;2023-01-31T06:25:53;97318.31;;;-1.08;100.00
58295;BME280;45705;55.592;37.460;2023-01-31T06:28:19;97330.97;;;-0.90;100.00
58295;BME280;45705;55.592;37.460;2023-01-31T06:30:45;97323.56;;;-0.98;100.00
58295;BME280;45705;55.592;37.460;2023-01-31T06:33:11;97329.84;;;-0.84;100.00
58295;BME280;45705;55.592;37.460;2023-01-31T06:35:37;97332.56;;;-0.89;100.00
58295;BME280;45705;55.592;37.460;2023-01-31T06:38:04;97337.28;;;-0.75;100.00
58295;BME280;45705;55.592;37.460;2023-01-31T06:40:30;97344.38;;;-0.95;100.00
58295;BME280;45705;55.592;37.460;2023-01-31T06:42:59;97343.75;;;-0.87;100.00
58295;BME280;45705;55.592;37.460;2023-01-31T06:45:25;97352.22;;;-0.80;100.00
58295;BME280;45705;55.592;37.460;2023-01-31T06:47:51;97346.63;;;-1.12;100.00
58295;BME280;45705;55.592;37.460;2023-01-31T06:50:17;97341.63;;;-0.90;100.00
58295;BME280;45705;55.592;37.460;2023-01-31T06:52:42;97351.50;;;-0.85;100.00
58295;BME280;45705;55.592;37.460;2023-01-31T06:55:08;97340.53;;;-0.84;100.00
58295;BME280;45705;55.592;37.460;2023-01-31T06:57:34;97351.91;;;-0.68;100.00
58295;BME280;45705;55.592;37.460;2023-01-31T07:00:00;97347.47;;;-0.83;100.00
58295;BME280;45705;55.592;37.460;2023-01-31T07:02:26;97350.81;;;-0.67;100.00
58295;BME280;45705;55.592;37.460;2023-01-31T07:04:52;97356.47;;;-0.73;100.00
58295;BME280;45705;55.592;37.460;2023-01-31T07:07:18;97363.69;;;-0.45;100.00
58295;BME280;45705;55.592;37.460;2023-01-31T07:09:43;97367.78;;;-0.52;100.00
58295;BME280;45705;55.592;37.460;2023-01-31T07:12:10;97363.69;;;-0.45;100.00
58295;BME280;45705;55.592;37.460;2023-01-31T07:14:36;97366.81;;;-0.32;100.00
58295;BME280;45705;55.592;37.460;2023-01-31T07:17:02;97375.06;;;-0.29;100.00
58295;BME280;45705;55.592;37.460;2023-01-31T07:19:27;97369.25;;;-0.41;100.00
58295;BME280;45705;55.592;37.460;2023-01-31T07:21:53;97373.72;;;-0.31;100.00
58295;BME280;45705;55.592;37.460;2023-01-31T07:24:19;97375.59;;;-0.32;100.00
58295;BME280;45705;55.592;37.460;2023-01-31T07:26:44;97372.94;;;-0.32;100.00
58295;BME280;45705;55.592;37.460;2023-01-31T07:29:10;97378.69;;;-0.49;100.00
58295;BME280;45705;55.592;37.460;2023-01-31T07:31:37;97381.41;;;-0.54;100.00
58295;BME280;45705;55.592;37.460;2023-01-31T07:34:03;97388.69;;;-0.30;100.00
58295;BME280;45705;55.592;37.460;2023-01-31T07:36:28;97385.88;;;-0.44;100.00
58295;BME280;45705;55.592;37.460;2023-01-31T07:38:56;97392.84;;;-0.19;100.00
58295;BME280;45705;55.592;37.460;2023-01-31T07:41:23;97386.25;;;-0.27;100.00
58295;BME280;45705;55.592;37.460;2023-01-31T07:43:48;97376.31;;;-0.50;100.00
58295;BME280;45705;55.592;37.460;2023-01-31T07:46:14;97396.44;;;-0.34;100.00
58295;BME280;45705;55.592;37.460;2023-01-31T07:48:40;97398.38;;;-0.40;100.00
58295;BME280;45705;55.592;37.460;2023-01-31T07:51:06;97405.69;;;-0.21;100.00
58295;BME280;45705;55.592;37.460;2023-01-31T07:53:35;97406.63;;;-0.07;100.00
58295;BME280;45705;55.592;37.460;2023-01-31T07:56:20;97409.03;;;0.19;100.00
58295;BME280;45705;55.592;37.460;2023-01-31T07:58:48;97407.50;;;-0.16;100.00
58295;BME280;45705;55.592;37.460;2023-01-31T08:01:25;97408.44;;;-0.02;100.00
58295;BME280;45705;55.592;37.460;2023-01-31T08:04:12;97414.41;;;-0.10;100.00
58295;BME280;45705;55.592;37.460;2023-01-31T08:06:39;97407.00;;;-0.53;100.00
58295;BME280;45705;55.592;37.460;2023-01-31T08:09:05;97412.06;;;-0.17;100.00
58295;BME280;45705;55.592;37.460;2023-01-31T08:11:31;97415.91;;;-0.28;100.00
58295;BME280;45705;55.592;37.460;2023-01-31T08:13:57;97405.59;;;-0.11;100.00
58295;BME280;45705;55.592;37.460;2023-01-31T08:16:23;97424.09;;;-0.20;100.00
58295;BME280;45705;55.592;37.460;2023-01-31T08:18:49;97427.44;;;-0.04;100.00
58295;BME280;45705;55.592;37.460;2023-01-31T08:21:15;97432.19;;;-0.01;100.00
58295;BME280;45705;55.592;37.460;2023-01-31T08:23:42;97430.28;;;0.05;100.00
58295;BME280;45705;55.592;37.460;2023-01-31T08:26:12;97429.50;;;0.05;100.00
58295;BME280;45705;55.592;37.460;2023-01-31T08:28:38;97431.34;;;0.33;100.00
58295;BME280;45705;55.592;37.460;2023-01-31T08:31:04;97436.09;;;0.12;100.00
58295;BME280;45705;55.592;37.460;2023-01-31T08:33:31;97440.69;;;0.07;100.00
58295;BME280;45705;55.592;37.460;2023-01-31T08:35:57;97432.91;;;0.10;100.00
58295;BME280;45705;55.592;37.460;2023-01-31T08:38:31;97433.72;;;0.35;100.00
58295;BME280;45705;55.592;37.460;2023-01-31T08:40:57;97432.25;;;0.48;100.00
58295;BME280;45705;55.592;37.460;2023-01-31T08:43:23;97439.00;;;0.40;100.00
58295;BME280;45705;55.592;37.460;2023-01-31T08:45:49;97436.34;;;0.64;100.00
58295;BME280;45705;55.592;37.460;2023-01-31T08:48:15;97425.34;;;0.66;100.00
58295;BME280;45705;55.592;37.460;2023-01-31T08:50:41;97432.63;;;0.12;100.00
58295;BME280;45705;55.592;37.460;2023-01-31T08:53:06;97434.53;;;0.35;100.00
58295;BME280;45705;55.592;37.460;2023-01-31T08:55:34;97419.50;;;0.39;100.00
58295;BME280;45705;55.592;37.460;2023-01-31T08:58:00;97423.75;;;-0.08;100.00
58295;BME280;45705;55.592;37.460;2023-01-31T09:00:27;97435.38;;;0.02;100.00
58295;BME280;45705;55.592;37.460;2023-01-31T09:02:55;97434.94;;;-0.06;100.00
58295;BME280;45705;55.592;37.460;2023-01-31T09:05:22;97448.81;;;-0.04;100.00
58295;BME280;45705;55.592;37.460;2023-01-31T09:07:48;97440.28;;;-0.06;100.00
58295;BME280;45705;55.592;37.460;2023-01-31T09:10:14;97437.00;;;0.27;100.00
58295;BME280;45705;55.592;37.460;2023-01-31T09:12:40;97435.56;;;0.39;100.00
58295;BME280;45705;55.592;37.460;2023-01-31T09:15:06;97442.25;;;0.61;100.00
58295;BME280;45705;55.592;37.460;2023-01-31T09:17:32;97436.69;;;0.33;100.00
58295;BME280;45705;55.592;37.460;2023-01-31T09:19:57;97439.06;;;0.35;100.00
58295;BME280;45705;55.592;37.460;2023-01-31T09:22:23;97439.19;;;0.49;100.00
58295;BME280;45705;55.592;37.460;2023-01-31T09:24:49;97442.38;;;0.51;100.00
58295;BME280;45705;55.592;37.460;2023-01-31T09:27:14;97431.56;;;0.61;100.00
58295;BME280;45705;55.592;37.460;2023-01-31T09:29:40;97434.25;;;0.08;100.00
58295;BME280;45705;55.592;37.460;2023-01-31T09:32:06;97429.84;;;0.22;100.00
58295;BME280;45705;55.592;37.460;2023-01-31T09:34:32;97427.75;;;0.19;100.00
58295;BME280;45705;55.592;37.460;2023-01-31T09:36:58;97430.84;;;0.31;100.00
58295;BME280;45705;55.592;37.460;2023-01-31T09:39:24;97422.66;;;0.47;100.00
58295;BME280;45705;55.592;37.460;2023-01-31T09:42:00;97437.13;;;0.41;100.00
58295;BME280;45705;55.592;37.460;2023-01-31T09:44:36;97413.41;;;0.58;100.00
58295;BME280;45705;55.592;37.460;2023-01-31T09:49:32;97435.06;;;0.81;100.00
58295;BME280;45705;55.592;37.460;2023-01-31T09:52:05;97439.97;;;0.73;100.00
58295;BME280;45705;55.592;37.460;2023-01-31T09:54:34;97448.41;;;0.62;100.00
58295;BME280;45705;55.592;37.460;2023-01-31T09:57:12;97443.72;;;0.48;100.00
58295;BME280;45705;55.592;37.460;2023-01-31T10:07:29;97447.25;;;0.68;100.00
58295;BME280;45705;55.592;37.460;2023-01-31T10:20:49;97459.78;;;0.72;100.00
58295;BME280;45705;55.592;37.460;2023-01-31T10:23:39;97460.47;;;0.59;100.00
58295;BME280;45705;55.592;37.460;2023-01-31T10:26:12;97464.81;;;0.55;100.00
